Kezdőlap
METAR-TAF:

METAR-TAF

Repülőterek :

Sunlight Mountain, Colorado, Amerikai Egyesült Államok

földrajzi szélesség: 39-25-32N, földrajzi hosszúság: 107-22-45W, magasság: 3232 m

Jelenlegi meteorológiai megfigyelések

A jelentés 46 perccel ezelõtt készült, 00:12 UTC
Délnyugati szél 10 kt
Hőmérséklet 0°C
Páratartalom 64%
Légköri nyomás 1015 hPa
Látótávolság: 16.1 km
Szórványos felhőzet 3800 lábon
Szakadozott felhőzet 4700 lábon
Borult 6500 lábon

METAR: K5SM 050012Z AUTO 22010KT 10SM SCT038 BKN047 OVC065 00/M06 A2998 RMK AO2

Idő: 18:58 (00:58 UTC)


TAF: hiányzik

Meteorológiai megfigyelések és előrejelzések több, mint 4000 repülőtéren (METAR és TAF jelentéseket).

A térképen piros és sárga pontok jelzik az elérhető meteorológiai állomásokat.

Mozgassa az egeret a pont fölött, hogy megjelenjen az állomás neve.

Azután kattintson az időjárási megfigyelések és előrejelzések megtekintéséhez.

A térkép megváltoztatása: kattintson a fekete keresztel jelölt zöld gombra ráközelítéshez, a vonallal jelölt zöld gombra távolításhoz, vagy a zöld nyilakra a szomszédos térképek eléréséhez.


METAR-TAF: